createdAt,value
2022-09-23T00:01:26.376Z,9.70
2022-09-23T00:03:54.564Z,9.70
2022-09-23T00:06:24.054Z,9.70
2022-09-23T00:08:52.654Z,9.70
2022-09-23T00:11:26.494Z,9.62
2022-09-23T00:13:58.043Z,9.60
2022-09-23T00:16:32.597Z,9.58
2022-09-23T00:19:02.638Z,9.50
2022-09-23T00:21:30.829Z,9.50
2022-09-23T00:23:58.703Z,9.42
2022-09-23T00:26:27.635Z,9.40
2022-09-23T00:28:55.478Z,9.40
2022-09-23T00:31:27.338Z,9.40
2022-09-23T00:34:01.388Z,9.34
2022-09-23T00:36:30.134Z,9.30
2022-09-23T00:38:58.019Z,9.30
2022-09-23T00:41:26.749Z,9.30
2022-09-23T00:43:59.385Z,9.30
2022-09-23T00:46:36.209Z,9.22
2022-09-23T00:49:32.010Z,9.20
2022-09-23T00:52:13.257Z,9.20
2022-09-23T00:54:42.513Z,9.10
2022-09-23T00:57:11.722Z,9.10
2022-09-23T00:59:39.798Z,9.10
2022-09-23T01:02:09.743Z,9.10
2022-09-23T01:04:38.060Z,9.02
2022-09-23T01:07:06.071Z,9.04
2022-09-23T01:09:34.049Z,9.00
2022-09-23T01:12:27.180Z,9.00
2022-09-23T01:15:21.163Z,9.00
2022-09-23T01:18:16.842Z,9.00
2022-09-23T01:21:17.918Z,9.00
2022-09-23T01:24:20.914Z,8.90
2022-09-23T01:27:31.279Z,9.00
2022-09-23T01:30:13.897Z,9.00
2022-09-23T01:33:24.291Z,9.00
2022-09-23T01:36:24.025Z,9.10
2022-09-23T01:39:35.404Z,9.10
2022-09-23T01:42:27.559Z,9.10
2022-09-23T01:45:08.966Z,9.10
2022-09-23T01:47:42.561Z,9.10
2022-09-23T01:50:36.321Z,9.10
2022-09-23T01:53:17.036Z,9.02
2022-09-23T01:55:52.264Z,9.00
2022-09-23T01:58:28.595Z,9.00
2022-09-23T02:01:02.893Z,9.00
2022-09-23T02:03:50.383Z,9.00
2022-09-23T02:06:32.046Z,9.00
2022-09-23T02:09:04.879Z,8.94
2022-09-23T02:11:36.425Z,9.00
2022-09-23T02:14:16.793Z,8.94
2022-09-23T02:16:52.036Z,8.90
2022-09-23T02:19:50.743Z,8.90
2022-09-23T02:22:26.011Z,8.90
2022-09-23T02:24:57.471Z,8.84
2022-09-23T02:28:12.618Z,8.80
2022-09-23T02:31:29.977Z,8.80
2022-09-23T02:34:06.742Z,8.80
2022-09-23T02:37:18.664Z,8.70
2022-09-23T02:40:13.968Z,8.70
2022-09-23T02:42:50.151Z,8.64
2022-09-23T02:45:18.508Z,8.60
2022-09-23T02:47:56.742Z,8.60
2022-09-23T02:50:25.016Z,8.60
2022-09-23T02:52:52.799Z,8.52
2022-09-23T02:55:23.429Z,8.50
2022-09-23T02:57:53.475Z,8.50
2022-09-23T03:00:21.295Z,8.50
2022-09-23T03:03:17.287Z,8.50
2022-09-23T03:05:55.075Z,8.50
2022-09-23T03:08:37.651Z,8.50
2022-09-23T03:11:13.545Z,8.50
2022-09-23T03:14:25.605Z,8.50
2022-09-23T03:17:07.072Z,8.50
2022-09-23T03:20:02.662Z,8.60
2022-09-23T03:22:48.858Z,8.60
2022-09-23T03:25:22.623Z,8.60
2022-09-23T03:27:51.777Z,8.62
2022-09-23T03:30:21.746Z,8.62
2022-09-23T03:32:51.602Z,8.60
2022-09-23T03:35:22.888Z,8.60
2022-09-23T03:38:17.361Z,8.60
2022-09-23T03:40:50.964Z,8.60
2022-09-23T03:43:18.894Z,8.60
2022-09-23T03:45:47.556Z,8.60
2022-09-23T03:48:15.723Z,8.60
2022-09-23T03:50:44.356Z,8.60
2022-09-23T03:53:13.753Z,8.58
2022-09-23T03:55:41.549Z,8.50
2022-09-23T03:58:09.734Z,8.50
2022-09-23T04:00:37.635Z,8.48
2022-09-23T04:03:10.927Z,8.40
2022-09-23T04:05:39.523Z,8.40
2022-09-23T04:08:07.532Z,8.40
2022-09-23T04:10:35.392Z,8.40
2022-09-23T04:13:03.235Z,8.30
2022-09-23T04:15:31.005Z,8.30
2022-09-23T04:17:58.803Z,8.30
2022-09-23T04:20:28.684Z,8.28
2022-09-23T04:22:56.683Z,8.20
2022-09-23T04:25:24.631Z,8.20
2022-09-23T04:27:52.396Z,8.20
2022-09-23T04:30:20.212Z,8.20
2022-09-23T04:32:48.087Z,8.20
2022-09-23T04:35:16.048Z,8.20
2022-09-23T04:37:44.365Z,8.20
2022-09-23T04:40:12.385Z,8.20
2022-09-23T04:42:40.173Z,8.20
2022-09-23T04:45:08.589Z,8.20
2022-09-23T04:47:36.925Z,8.16
2022-09-23T04:50:05.148Z,8.10
2022-09-23T04:52:33.121Z,8.12
2022-09-23T04:55:01.627Z,8.18
2022-09-23T04:57:29.896Z,8.20
2022-09-23T04:59:57.949Z,8.20
2022-09-23T05:02:25.947Z,8.18
2022-09-23T05:04:55.552Z,8.20
2022-09-23T05:07:23.353Z,8.20
2022-09-23T05:09:51.184Z,8.26
2022-09-23T05:12:18.925Z,8.30
2022-09-23T05:14:46.670Z,8.30
2022-09-23T05:17:14.789Z,8.30
2022-09-23T05:19:42.632Z,8.30
2022-09-23T05:22:10.442Z,8.40
2022-09-23T05:24:38.381Z,8.40
2022-09-23T05:27:09.352Z,8.40
2022-09-23T05:29:38.626Z,8.50
2022-09-23T05:32:06.459Z,8.50
2022-09-23T05:34:34.578Z,8.50
2022-09-23T05:37:02.770Z,8.60
2022-09-23T05:39:30.674Z,8.60
2022-09-23T05:42:00.184Z,8.70
2022-09-23T05:44:28.235Z,8.70
2022-09-23T05:46:56.351Z,8.70
2022-09-23T05:49:42.626Z,8.80
2022-09-23T05:52:12.319Z,8.80
2022-09-23T05:54:40.895Z,8.90
2022-09-23T05:57:08.835Z,8.90
2022-09-23T05:59:38.068Z,9.00
2022-09-23T06:02:06.351Z,9.10
2022-09-23T06:04:34.491Z,9.20
2022-09-23T06:07:03.659Z,9.20
2022-09-23T06:09:36.339Z,9.28
2022-09-23T06:12:06.456Z,9.30
2022-09-23T06:14:34.324Z,9.40
2022-09-23T06:17:02.065Z,9.50
2022-09-23T06:19:29.868Z,9.60
2022-09-23T06:21:58.103Z,9.60
2022-09-23T06:24:30.849Z,9.70
2022-09-23T06:26:59.406Z,9.80
2022-09-23T06:29:28.128Z,9.90
2022-09-23T06:31:55.953Z,10.00
2022-09-23T06:34:23.817Z,10.00
2022-09-23T06:36:52.005Z,10.10
2022-09-23T06:39:19.946Z,10.12
2022-09-23T06:41:48.171Z,10.20
2022-09-23T06:44:16.614Z,10.20
2022-09-23T06:46:44.636Z,10.20
2022-09-23T06:49:13.002Z,10.30
2022-09-23T06:51:41.412Z,10.36
2022-09-23T06:54:09.593Z,10.42
2022-09-23T06:56:39.572Z,10.48
2022-09-23T06:59:13.046Z,10.50
2022-09-23T07:01:41.792Z,10.60
2022-09-23T07:04:10.797Z,10.62
2022-09-23T07:06:39.603Z,10.70
2022-09-23T07:09:08.716Z,10.80
2022-09-23T07:11:37.094Z,10.80
2022-09-23T07:14:05.478Z,10.90
2022-09-23T07:16:33.597Z,11.00
2022-09-23T07:19:01.438Z,11.00
2022-09-23T07:21:29.443Z,11.00
2022-09-23T07:23:58.276Z,11.10
2022-09-23T07:26:26.292Z,11.30
2022-09-23T07:29:04.708Z,11.40
2022-09-23T07:31:39.091Z,11.60
2022-09-23T07:34:11.568Z,11.70
2022-09-23T07:36:40.958Z,11.90
2022-09-23T07:39:12.743Z,12.10
2022-09-23T07:41:44.336Z,12.62
2022-09-23T07:44:12.532Z,13.46
2022-09-23T07:46:41.115Z,14.10
2022-09-23T07:49:09.575Z,14.94
2022-09-23T07:51:39.520Z,15.30
2022-09-23T07:54:12.106Z,16.52
2022-09-23T07:56:41.462Z,17.58
2022-09-23T07:59:15.450Z,17.54
2022-09-23T08:01:48.312Z,17.80
2022-09-23T08:04:23.763Z,18.00
2022-09-23T08:07:01.395Z,17.90
2022-09-23T08:09:41.897Z,17.80
2022-09-23T08:12:16.067Z,17.70
2022-09-23T08:14:44.852Z,17.26
2022-09-23T08:17:13.932Z,16.94
2022-09-23T08:19:41.840Z,16.78
2022-09-23T08:22:09.621Z,16.40
2022-09-23T08:24:37.468Z,16.20
2022-09-23T08:27:05.375Z,16.00
2022-09-23T08:29:33.193Z,15.70
2022-09-23T08:32:01.310Z,15.50
2022-09-23T08:34:29.780Z,15.30
2022-09-23T08:36:57.632Z,15.20
2022-09-23T08:39:26.165Z,15.10
2022-09-23T08:41:59.005Z,15.00
2022-09-23T08:44:45.389Z,15.00
2022-09-23T08:47:28.000Z,15.00
2022-09-23T08:50:11.668Z,14.90
2022-09-23T08:52:50.580Z,14.80
2022-09-23T08:55:22.396Z,14.80
2022-09-23T08:58:41.783Z,14.92
2022-09-23T09:01:45.485Z,15.64
2022-09-23T09:04:31.831Z,16.14
2022-09-23T09:07:35.237Z,16.02
2022-09-23T09:10:26.064Z,15.80
2022-09-23T09:13:07.628Z,15.60
2022-09-23T09:15:46.355Z,15.50
2022-09-23T09:18:20.993Z,15.40
2022-09-23T09:20:57.847Z,15.30
2022-09-23T09:23:59.817Z,15.30
2022-09-23T09:26:32.724Z,15.30
2022-09-23T09:29:35.261Z,15.40
2022-09-23T09:32:33.736Z,15.50
2022-09-23T09:35:16.195Z,15.50
2022-09-23T09:37:47.500Z,15.50
2022-09-23T09:40:17.339Z,15.46
2022-09-23T09:42:49.673Z,15.50
2022-09-23T09:45:36.176Z,15.50
2022-09-23T09:48:17.715Z,15.60
2022-09-23T09:50:52.090Z,15.50
2022-09-23T09:53:32.118Z,15.50
2022-09-23T09:56:05.019Z,15.46
2022-09-23T09:59:01.680Z,15.40
2022-09-23T10:01:32.537Z,15.54
2022-09-23T10:04:19.892Z,15.60
2022-09-23T10:07:09.855Z,15.60
2022-09-23T10:09:40.286Z,15.60
2022-09-23T10:12:23.945Z,15.60
2022-09-23T10:14:57.203Z,15.50
2022-09-23T10:17:35.826Z,15.50
2022-09-23T10:20:09.159Z,15.50
2022-09-23T10:22:42.532Z,15.40
2022-09-23T10:25:20.386Z,15.50
2022-09-23T10:27:48.300Z,15.50
2022-09-23T10:30:28.286Z,15.40
2022-09-23T10:32:57.055Z,15.40
2022-09-23T10:35:26.614Z,15.50
2022-09-23T10:37:57.384Z,15.50
2022-09-23T10:40:58.065Z,15.40
2022-09-23T10:44:16.605Z,15.40
2022-09-23T10:47:14.927Z,15.50
2022-09-23T10:50:23.195Z,15.50
2022-09-23T10:53:05.069Z,15.60
2022-09-23T10:56:03.729Z,15.62
2022-09-23T10:58:54.972Z,15.74
2022-09-23T11:01:40.829Z,15.80
2022-09-23T11:04:52.985Z,15.90
2022-09-23T11:07:39.097Z,16.10
2022-09-23T11:10:45.890Z,16.10
2022-09-23T11:13:30.317Z,16.10
2022-09-23T11:16:05.345Z,16.08
2022-09-23T11:18:51.525Z,16.00
2022-09-23T11:21:58.409Z,16.00
2022-09-23T11:25:12.049Z,15.90
2022-09-23T11:28:19.988Z,15.82
2022-09-23T11:31:17.500Z,15.90
2022-09-23T11:34:22.345Z,15.90
2022-09-23T11:37:04.174Z,15.80
2022-09-23T11:39:44.223Z,15.80
2022-09-23T11:42:26.299Z,16.00
2022-09-23T11:45:25.614Z,16.06
2022-09-23T11:48:16.975Z,16.10
2022-09-23T11:50:57.176Z,16.10
2022-09-23T11:53:48.451Z,16.10
2022-09-23T11:56:36.280Z,16.08
2022-09-23T11:59:24.063Z,16.10
2022-09-23T12:02:30.446Z,16.20
2022-09-23T12:05:30.895Z,16.20
2022-09-23T12:08:32.449Z,16.10
2022-09-23T12:11:22.187Z,16.10
2022-09-23T12:14:39.072Z,16.20
2022-09-23T12:17:51.641Z,16.46
2022-09-23T12:20:26.191Z,16.70
2022-09-23T12:23:34.572Z,16.94
2022-09-23T12:26:19.588Z,17.14
2022-09-23T12:28:50.775Z,17.10
2022-09-23T12:31:30.687Z,17.08
2022-09-23T12:34:01.903Z,17.00
2022-09-23T12:36:34.892Z,16.92
2022-09-23T12:39:34.521Z,16.90
2022-09-23T12:42:06.570Z,16.98
2022-09-23T12:44:42.087Z,17.00
2022-09-23T12:47:25.263Z,17.10
2022-09-23T12:49:54.482Z,17.20
2022-09-23T12:52:30.976Z,17.30
2022-09-23T12:55:23.258Z,17.40
2022-09-23T12:57:51.219Z,17.40
2022-09-23T13:00:26.430Z,17.60
2022-09-23T13:03:18.670Z,17.70
2022-09-23T13:06:20.168Z,17.92
2022-09-23T13:08:52.844Z,18.30
2022-09-23T13:11:32.645Z,18.40
2022-09-23T13:14:05.230Z,18.40
2022-09-23T13:16:45.616Z,18.60
2022-09-23T13:19:25.995Z,18.90
2022-09-23T13:21:53.997Z,19.10
2022-09-23T13:24:31.209Z,19.30
2022-09-23T13:27:02.087Z,19.30
2022-09-23T13:29:39.111Z,19.30
2022-09-23T13:32:18.676Z,19.10
2022-09-23T13:35:15.749Z,18.92
2022-09-23T13:37:47.801Z,18.70
2022-09-23T13:40:28.590Z,18.50
2022-09-23T13:43:09.278Z,18.30
2022-09-23T13:45:43.203Z,18.10
2022-09-23T13:48:15.503Z,17.98
2022-09-23T13:50:49.225Z,17.90
2022-09-23T13:53:32.509Z,17.70
2022-09-23T13:56:29.873Z,17.52
2022-09-23T13:59:42.267Z,17.32
2022-09-23T14:02:16.895Z,17.20
2022-09-23T14:04:46.089Z,17.18
2022-09-23T14:07:16.959Z,17.10
2022-09-23T14:09:51.055Z,16.98
2022-09-23T14:12:22.427Z,16.90
2022-09-23T14:14:52.530Z,16.80
2022-09-23T14:17:25.600Z,16.80
2022-09-23T14:19:53.719Z,16.70
2022-09-23T14:22:28.619Z,16.70
2022-09-23T14:24:58.519Z,16.70
2022-09-23T14:27:32.886Z,16.70
2022-09-23T14:30:03.500Z,16.68
2022-09-23T14:32:33.040Z,16.60
2022-09-23T14:35:04.020Z,16.50
2022-09-23T14:37:59.764Z,16.50
2022-09-23T14:40:33.477Z,16.40
2022-09-23T14:43:26.674Z,16.30
2022-09-23T14:45:57.932Z,16.20
2022-09-23T14:48:34.191Z,16.20
2022-09-23T14:51:10.816Z,16.20
2022-09-23T14:53:43.683Z,16.18
2022-09-23T14:56:22.351Z,16.10
2022-09-23T14:59:00.675Z,16.10
2022-09-23T15:01:32.156Z,16.10
2022-09-23T15:04:22.202Z,16.10
2022-09-23T15:06:53.774Z,16.10
2022-09-23T15:09:26.703Z,16.12
2022-09-23T15:12:05.894Z,16.20
2022-09-23T15:15:02.997Z,16.20
2022-09-23T15:17:37.536Z,16.12
2022-09-23T15:20:21.871Z,16.10
2022-09-23T15:22:54.097Z,16.08
2022-09-23T15:25:32.964Z,16.00
2022-09-23T15:28:12.971Z,16.00
2022-09-23T15:30:41.288Z,16.00
2022-09-23T15:33:14.944Z,16.00
2022-09-23T15:35:49.065Z,16.00
2022-09-23T15:38:17.861Z,15.92
2022-09-23T15:40:45.895Z,15.90
2022-09-23T15:43:21.457Z,15.90
2022-09-23T15:45:56.470Z,15.80
2022-09-23T15:48:38.825Z,15.70
2022-09-23T15:51:09.811Z,15.60
2022-09-23T15:53:38.341Z,15.50
2022-09-23T15:56:06.359Z,15.40
2022-09-23T15:58:34.458Z,15.36
2022-09-23T16:01:03.828Z,15.30
2022-09-23T16:03:31.871Z,15.20
2022-09-23T16:06:03.206Z,15.10
2022-09-23T16:08:33.077Z,15.00
2022-09-23T16:11:01.082Z,15.00
2022-09-23T16:13:29.036Z,15.00
2022-09-23T16:15:56.852Z,14.90
2022-09-23T16:18:24.740Z,14.90
2022-09-23T16:20:52.738Z,14.80
2022-09-23T16:23:38.643Z,14.80
2022-09-23T16:26:25.381Z,14.70
2022-09-23T16:28:55.863Z,14.60
2022-09-23T16:31:25.721Z,14.60
2022-09-23T16:33:54.006Z,14.54
2022-09-23T16:36:33.861Z,14.50
2022-09-23T16:39:07.516Z,14.44
2022-09-23T16:41:35.446Z,14.40
2022-09-23T16:44:06.245Z,14.40
2022-09-23T16:46:34.865Z,14.30
2022-09-23T16:49:02.943Z,14.30
2022-09-23T16:51:38.071Z,14.30
2022-09-23T16:54:17.412Z,14.20
2022-09-23T16:56:45.602Z,14.18
2022-09-23T16:59:15.641Z,14.10
2022-09-23T17:02:02.548Z,14.10
2022-09-23T17:04:31.527Z,14.00
2022-09-23T17:06:59.321Z,14.00
2022-09-23T17:09:29.217Z,13.94
2022-09-23T17:12:35.146Z,13.90
2022-09-23T17:15:07.518Z,13.80
2022-09-23T17:17:37.554Z,13.72
2022-09-23T17:20:06.748Z,13.70
2022-09-23T17:22:34.614Z,13.70
2022-09-23T17:25:03.956Z,13.60
2022-09-23T17:27:32.078Z,13.60
2022-09-23T17:29:59.866Z,13.60
2022-09-23T17:32:27.811Z,13.52
2022-09-23T17:34:55.717Z,13.50
2022-09-23T17:37:23.609Z,13.50
2022-09-23T17:39:51.564Z,13.46
2022-09-23T17:42:19.432Z,13.40
2022-09-23T17:44:48.110Z,13.40
2022-09-23T17:47:16.001Z,13.40
2022-09-23T17:49:46.875Z,13.40
2022-09-23T17:52:14.656Z,13.36
2022-09-23T17:54:42.731Z,13.36
2022-09-23T17:57:11.077Z,13.40
2022-09-23T17:59:39.164Z,13.40
2022-09-23T18:02:07.014Z,13.40
2022-09-23T18:04:34.778Z,13.40
2022-09-23T18:07:02.762Z,13.40
2022-09-23T18:09:30.782Z,13.40
2022-09-23T18:11:58.568Z,13.34
2022-09-23T18:14:26.406Z,13.34
2022-09-23T18:16:54.468Z,13.36
2022-09-23T18:19:24.754Z,13.30
2022-09-23T18:21:56.422Z,13.30
2022-09-23T18:24:33.400Z,13.30
2022-09-23T18:27:03.344Z,13.30
2022-09-23T18:29:33.288Z,13.32
2022-09-23T18:32:02.135Z,13.30
2022-09-23T18:34:31.146Z,13.30
2022-09-23T18:36:59.016Z,13.30
2022-09-23T18:39:26.885Z,13.32
2022-09-23T18:41:55.561Z,13.38
2022-09-23T18:44:24.409Z,13.40
2022-09-23T18:46:52.466Z,13.40
2022-09-23T18:49:38.728Z,13.40
2022-09-23T18:52:06.629Z,13.40
2022-09-23T18:54:34.480Z,13.40
2022-09-23T18:57:02.315Z,13.40
2022-09-23T18:59:33.583Z,13.40
2022-09-23T19:02:02.059Z,13.40
2022-09-23T19:04:30.069Z,13.40
2022-09-23T19:06:58.855Z,13.40
2022-09-23T19:09:26.760Z,13.40
2022-09-23T19:11:54.603Z,13.40
2022-09-23T19:14:22.678Z,13.40
2022-09-23T19:16:50.832Z,13.40
2022-09-23T19:20:25.898Z,13.40
2022-09-23T19:22:54.452Z,13.40
2022-09-23T19:25:22.594Z,13.40
2022-09-23T19:27:50.480Z,13.40
2022-09-23T19:30:19.530Z,13.40
2022-09-23T19:32:49.126Z,13.40
2022-09-23T19:35:20.613Z,13.40
2022-09-23T19:37:49.888Z,13.48
2022-09-23T19:40:17.931Z,13.50
2022-09-23T19:42:46.236Z,13.50
2022-09-23T19:45:14.309Z,13.50
2022-09-23T19:47:42.297Z,13.50
2022-09-23T19:50:10.686Z,13.50
2022-09-23T19:52:38.841Z,13.50
2022-09-23T19:55:08.323Z,13.50
2022-09-23T19:57:36.261Z,13.50
2022-09-23T20:00:05.529Z,13.50
2022-09-23T20:02:40.163Z,13.50
2022-09-23T20:05:11.863Z,13.50
2022-09-23T20:07:41.769Z,13.50
2022-09-23T20:10:11.842Z,13.50
2022-09-23T20:12:42.346Z,13.50
2022-09-23T20:15:14.476Z,13.48
2022-09-23T20:17:42.706Z,13.50
2022-09-23T20:20:13.413Z,13.50
2022-09-23T20:22:42.093Z,13.50
2022-09-23T20:25:13.524Z,13.50
2022-09-23T20:27:41.397Z,13.46
2022-09-23T20:30:10.004Z,13.46
2022-09-23T20:32:44.613Z,13.40
2022-09-23T20:35:13.705Z,13.40
2022-09-23T20:37:41.452Z,13.40
2022-09-23T20:40:10.299Z,13.40
2022-09-23T20:42:38.525Z,13.40
2022-09-23T20:45:07.416Z,13.30
2022-09-23T20:47:35.275Z,13.30
2022-09-23T20:50:03.231Z,13.28
2022-09-23T20:52:31.151Z,13.20
2022-09-23T20:54:59.236Z,13.12
2022-09-23T20:57:28.120Z,13.10
2022-09-23T20:59:55.937Z,13.00
2022-09-23T21:02:25.526Z,13.00
2022-09-23T21:04:53.479Z,12.90
2022-09-23T21:07:23.827Z,12.90
2022-09-23T21:09:51.696Z,12.80
2022-09-23T21:12:19.571Z,12.74
2022-09-23T21:14:47.469Z,12.70
2022-09-23T21:17:15.355Z,12.70
2022-09-23T21:19:43.185Z,12.60
2022-09-23T21:22:12.414Z,12.60
2022-09-23T21:25:16.146Z,12.50
2022-09-23T21:27:29.653Z,12.40
2022-09-23T21:29:58.995Z,12.40
2022-09-23T21:32:26.864Z,12.30
2022-09-23T21:34:54.951Z,12.20
2022-09-23T21:37:23.018Z,12.20
2022-09-23T21:40:10.932Z,12.10
2022-09-23T21:42:38.965Z,12.08
2022-09-23T21:45:07.288Z,12.00
2022-09-23T21:47:35.686Z,12.00
2022-09-23T21:50:04.660Z,11.92
2022-09-23T21:52:32.950Z,11.90
2022-09-23T21:55:01.076Z,11.88
2022-09-23T21:57:30.601Z,11.80
2022-09-23T21:59:58.588Z,11.80
2022-09-23T22:02:27.559Z,11.70
2022-09-23T22:04:55.416Z,11.70
2022-09-23T22:07:23.928Z,11.60
2022-09-23T22:09:51.879Z,11.54
2022-09-23T22:12:19.721Z,11.50
2022-09-23T22:14:48.041Z,11.44
2022-09-23T22:17:16.343Z,11.40
2022-09-23T22:19:47.243Z,11.30
2022-09-23T22:22:18.117Z,11.20
2022-09-23T22:24:47.777Z,11.10
2022-09-23T22:27:19.598Z,11.06
2022-09-23T22:30:06.905Z,11.00
2022-09-23T22:32:41.195Z,10.90
2022-09-23T22:35:17.802Z,10.82
2022-09-23T22:37:47.998Z,10.80
2022-09-23T22:40:16.201Z,10.70
2022-09-23T22:42:44.220Z,10.60
2022-09-23T22:45:12.946Z,10.54
2022-09-23T22:47:45.357Z,10.50
2022-09-23T22:50:14.884Z,10.50
2022-09-23T22:52:43.853Z,10.40
2022-09-23T22:55:12.628Z,10.34
2022-09-23T22:57:40.464Z,10.30
2022-09-23T23:00:10.007Z,10.26
2022-09-23T23:02:38.443Z,10.20
2022-09-23T23:05:07.315Z,10.10
2022-09-23T23:07:36.263Z,10.06
2022-09-23T23:10:07.307Z,9.98
2022-09-23T23:12:35.253Z,9.88
2022-09-23T23:15:03.390Z,9.80
2022-09-23T23:17:31.545Z,9.80
2022-09-23T23:19:59.961Z,9.70
2022-09-23T23:22:28.681Z,9.70
2022-09-23T23:24:57.070Z,9.70
2022-09-23T23:27:24.943Z,9.60
2022-09-23T23:29:52.742Z,9.60
2022-09-23T23:32:20.726Z,9.50
2022-09-23T23:34:48.563Z,9.50
2022-09-23T23:37:20.644Z,9.40
2022-09-23T23:39:48.969Z,9.40
2022-09-23T23:42:17.117Z,9.30
2022-09-23T23:44:45.112Z,9.30
2022-09-23T23:47:12.933Z,9.20
2022-09-23T23:49:40.802Z,9.20
2022-09-23T23:52:08.673Z,9.10
2022-09-23T23:54:36.572Z,9.10
2022-09-23T23:57:04.520Z,9.08
2022-09-23T23:59:34.377Z,9.08
